sensor_id;sensor_type;location;lat;lon;timestamp;temperature;humidity
67364;HTU21D;54250;45.572;38.086;2023-04-24T00:00:21;8.93;82.58
67364;HTU21D;54250;45.572;38.086;2023-04-24T00:02:47;8.93;82.65
67364;HTU21D;54250;45.572;38.086;2023-04-24T00:05:15;8.90;82.76
67364;HTU21D;54250;45.572;38.086;2023-04-24T00:07:41;8.85;82.91
67364;HTU21D;54250;45.572;38.086;2023-04-24T00:10:08;8.76;83.13
67364;HTU21D;54250;45.572;38.086;2023-04-24T00:12:34;8.68;83.33
67364;HTU21D;54250;45.572;38.086;2023-04-24T00:15:01;8.61;83.48
67364;HTU21D;54250;45.572;38.086;2023-04-24T00:17:27;8.51;83.71
67364;HTU21D;54250;45.572;38.086;2023-04-24T00:19:53;8.42;83.84
67364;HTU21D;54250;45.572;38.086;2023-04-24T00:22:25;8.34;83.94
67364;HTU21D;54250;45.572;38.086;2023-04-24T00:24:51;8.28;84.05
67364;HTU21D;54250;45.572;38.086;2023-04-24T00:27:17;8.18;84.13
67364;HTU21D;54250;45.572;38.086;2023-04-24T00:29:43;8.08;84.32
67364;HTU21D;54250;45.572;38.086;2023-04-24T00:32:09;8.03;84.39
67364;HTU21D;54250;45.572;38.086;2023-04-24T00:34:35;8.03;84.30
67364;HTU21D;54250;45.572;38.086;2023-04-24T00:37:01;8.00;84.25
67364;HTU21D;54250;45.572;38.086;2023-04-24T00:39:27;7.97;84.26
67364;HTU21D;54250;45.572;38.086;2023-04-24T00:41:53;7.87;84.37
67364;HTU21D;54250;45.572;38.086;2023-04-24T00:44:20;7.85;84.39
67364;HTU21D;54250;45.572;38.086;2023-04-24T00:46:46;7.84;84.31
67364;HTU21D;54250;45.572;38.086;2023-04-24T00:49:21;7.91;83.98
67364;HTU21D;54250;45.572;38.086;2023-04-24T00:51:47;7.94;83.85
67364;HTU21D;54250;45.572;38.086;2023-04-24T00:54:15;7.92;83.90
67364;HTU21D;54250;45.572;38.086;2023-04-24T00:56:42;7.94;83.91
67364;HTU21D;54250;45.572;38.086;2023-04-24T00:59:09;7.91;83.99
67364;HTU21D;54250;45.572;38.086;2023-04-24T01:01:36;7.87;84.10
67364;HTU21D;54250;45.572;38.086;2023-04-24T01:04:03;7.79;84.26
67364;HTU21D;54250;45.572;38.086;2023-04-24T01:06:29;7.72;84.48
67364;HTU21D;54250;45.572;38.086;2023-04-24T01:08:59;7.69;84.56
67364;HTU21D;54250;45.572;38.086;2023-04-24T01:11:26;7.62;84.60
67364;HTU21D;54250;45.572;38.086;2023-04-24T01:13:52;7.55;84.73
67364;HTU21D;54250;45.572;38.086;2023-04-24T01:16:19;7.48;84.83
67364;HTU21D;54250;45.572;38.086;2023-04-24T01:18:48;7.43;84.90
67364;HTU21D;54250;45.572;38.086;2023-04-24T01:21:15;7.43;84.85
67364;HTU21D;54250;45.572;38.086;2023-04-24T01:23:45;7.45;84.71
67364;HTU21D;54250;45.572;38.086;2023-04-24T01:26:12;7.50;84.53
67364;HTU21D;54250;45.572;38.086;2023-04-24T01:28:38;7.58;84.28
67364;HTU21D;54250;45.572;38.086;2023-04-24T01:31:05;7.63;84.13
67364;HTU21D;54250;45.572;38.086;2023-04-24T01:33:31;7.72;84.03
67364;HTU21D;54250;45.572;38.086;2023-04-24T01:35:57;7.85;83.75
67364;HTU21D;54250;45.572;38.086;2023-04-24T01:38:24;7.93;83.55
67364;HTU21D;54250;45.572;38.086;2023-04-24T01:40:50;7.97;83.51
67364;HTU21D;54250;45.572;38.086;2023-04-24T01:43:17;7.98;83.49
67364;HTU21D;54250;45.572;38.086;2023-04-24T01:45:44;7.98;83.58
67364;HTU21D;54250;45.572;38.086;2023-04-24T01:48:11;7.94;83.76
67364;HTU21D;54250;45.572;38.086;2023-04-24T01:50:38;7.90;83.95
67364;HTU21D;54250;45.572;38.086;2023-04-24T01:53:04;7.87;84.02
67364;HTU21D;54250;45.572;38.086;2023-04-24T01:55:30;7.86;84.08
67364;HTU21D;54250;45.572;38.086;2023-04-24T01:57:56;7.83;84.19
67364;HTU21D;54250;45.572;38.086;2023-04-24T02:00:23;7.81;84.18
67364;HTU21D;54250;45.572;38.086;2023-04-24T02:02:52;7.77;84.26
67364;HTU21D;54250;45.572;38.086;2023-04-24T02:05:18;7.75;84.26
67364;HTU21D;54250;45.572;38.086;2023-04-24T02:07:44;7.73;84.33
67364;HTU21D;54250;45.572;38.086;2023-04-24T02:10:10;7.68;84.47
67364;HTU21D;54250;45.572;38.086;2023-04-24T02:12:41;7.65;84.55
67364;HTU21D;54250;45.572;38.086;2023-04-24T02:15:07;7.61;84.64
67364;HTU21D;54250;45.572;38.086;2023-04-24T02:17:36;7.58;84.74
67364;HTU21D;54250;45.572;38.086;2023-04-24T02:20:04;7.55;84.78
67364;HTU21D;54250;45.572;38.086;2023-04-24T02:22:31;7.56;84.71
67364;HTU21D;54250;45.572;38.086;2023-04-24T02:25:01;7.56;84.64
67364;HTU21D;54250;45.572;38.086;2023-04-24T02:27:27;7.56;84.65
67364;HTU21D;54250;45.572;38.086;2023-04-24T02:29:53;7.55;84.63
67364;HTU21D;54250;45.572;38.086;2023-04-24T02:32:19;7.52;84.64
67364;HTU21D;54250;45.572;38.086;2023-04-24T02:34:45;7.55;84.61
67364;HTU21D;54250;45.572;38.086;2023-04-24T02:37:12;7.59;84.55
67364;HTU21D;54250;45.572;38.086;2023-04-24T02:39:38;7.61;84.48
67364;HTU21D;54250;45.572;38.086;2023-04-24T02:42:04;7.61;84.52
67364;HTU21D;54250;45.572;38.086;2023-04-24T02:44:31;7.64;84.57
67364;HTU21D;54250;45.572;38.086;2023-04-24T02:46:57;7.69;84.36
67364;HTU21D;54250;45.572;38.086;2023-04-24T02:49:23;7.83;84.29
67364;HTU21D;54250;45.572;38.086;2023-04-24T02:51:49;8.04;84.10
67364;HTU21D;54250;45.572;38.086;2023-04-24T02:54:15;8.31;83.94
67364;HTU21D;54250;45.572;38.086;2023-04-24T02:56:41;8.61;83.61
67364;HTU21D;54250;45.572;38.086;2023-04-24T02:59:08;8.91;83.18
67364;HTU21D;54250;45.572;38.086;2023-04-24T03:01:34;9.05;83.14
67364;HTU21D;54250;45.572;38.086;2023-04-24T03:04:01;9.37;83.11
67364;HTU21D;54250;45.572;38.086;2023-04-24T03:06:27;9.70;82.71
67364;HTU21D;54250;45.572;38.086;2023-04-24T03:08:53;10.01;82.36
67364;HTU21D;54250;45.572;38.086;2023-04-24T03:11:20;10.41;82.06
67364;HTU21D;54250;45.572;38.086;2023-04-24T03:13:46;10.97;81.40
67364;HTU21D;54250;45.572;38.086;2023-04-24T03:16:12;11.62;80.30
67364;HTU21D;54250;45.572;38.086;2023-04-24T03:18:38;12.10;79.76
67364;HTU21D;54250;45.572;38.086;2023-04-24T03:21:07;12.57;79.32
67364;HTU21D;54250;45.572;38.086;2023-04-24T03:23:35;12.86;79.08
67364;HTU21D;54250;45.572;38.086;2023-04-24T03:26:01;13.04;79.43
67364;HTU21D;54250;45.572;38.086;2023-04-24T03:28:28;13.45;79.00
67364;HTU21D;54250;45.572;38.086;2023-04-24T03:30:58;14.13;77.98
67364;HTU21D;54250;45.572;38.086;2023-04-24T03:33:29;14.87;76.53
67364;HTU21D;54250;45.572;38.086;2023-04-24T03:36:00;15.43;75.71
67364;HTU21D;54250;45.572;38.086;2023-04-24T03:38:33;16.08;74.61
67364;HTU21D;54250;45.572;38.086;2023-04-24T03:41:04;16.54;74.02
67364;HTU21D;54250;45.572;38.086;2023-04-24T03:43:45;16.91;73.64
67364;HTU21D;54250;45.572;38.086;2023-04-24T03:46:11;16.85;74.06
67364;HTU21D;54250;45.572;38.086;2023-04-24T03:48:41;16.92;74.06
67364;HTU21D;54250;45.572;38.086;2023-04-24T03:51:09;17.21;73.77
67364;HTU21D;54250;45.572;38.086;2023-04-24T03:53:37;17.40;73.25
67364;HTU21D;54250;45.572;38.086;2023-04-24T03:56:03;17.88;72.64
67364;HTU21D;54250;45.572;38.086;2023-04-24T03:58:31;18.82;71.03
67364;HTU21D;54250;45.572;38.086;2023-04-24T04:00:57;19.89;69.01
67364;HTU21D;54250;45.572;38.086;2023-04-24T04:03:43;20.94;67.20
67364;HTU21D;54250;45.572;38.086;2023-04-24T04:06:10;21.79;65.90
67364;HTU21D;54250;45.572;38.086;2023-04-24T04:08:38;22.62;64.51
67364;HTU21D;54250;45.572;38.086;2023-04-24T04:11:04;23.27;63.41
67364;HTU21D;54250;45.572;38.086;2023-04-24T04:13:30;23.72;62.98
67364;HTU21D;54250;45.572;38.086;2023-04-24T04:15:57;23.75;62.92
67364;HTU21D;54250;45.572;38.086;2023-04-24T04:18:23;23.74;63.09
67364;HTU21D;54250;45.572;38.086;2023-04-24T04:20:49;23.54;63.57
67364;HTU21D;54250;45.572;38.086;2023-04-24T04:23:16;23.15;63.82
67364;HTU21D;54250;45.572;38.086;2023-04-24T04:26:01;23.06;64.15
67364;HTU21D;54250;45.572;38.086;2023-04-24T04:28:38;23.22;63.63
67364;HTU21D;54250;45.572;38.086;2023-04-24T04:31:05;23.44;62.98
67364;HTU21D;54250;45.572;38.086;2023-04-24T04:33:34;23.50;62.57
67364;HTU21D;54250;45.572;38.086;2023-04-24T04:36:02;23.22;62.58
67364;HTU21D;54250;45.572;38.086;2023-04-24T04:38:30;23.05;62.62
67364;HTU21D;54250;45.572;38.086;2023-04-24T04:41:07;23.01;62.44
67364;HTU21D;54250;45.572;38.086;2023-04-24T04:43:33;23.31;61.79
67364;HTU21D;54250;45.572;38.086;2023-04-24T04:46:00;23.88;60.67
67364;HTU21D;54250;45.572;38.086;2023-04-24T04:48:59;24.63;59.22
67364;HTU21D;54250;45.572;38.086;2023-04-24T04:51:25;25.03;58.65
67364;HTU21D;54250;45.572;38.086;2023-04-24T04:53:51;25.18;58.35
67364;HTU21D;54250;45.572;38.086;2023-04-24T04:56:18;24.27;59.88
67364;HTU21D;54250;45.572;38.086;2023-04-24T04:58:45;23.08;62.47
67364;HTU21D;54250;45.572;38.086;2023-04-24T05:01:14;22.73;63.26
67364;HTU21D;54250;45.572;38.086;2023-04-24T05:03:44;22.96;62.70
67364;HTU21D;54250;45.572;38.086;2023-04-24T05:06:13;23.21;61.54
67364;HTU21D;54250;45.572;38.086;2023-04-24T05:08:41;23.91;60.44
67364;HTU21D;54250;45.572;38.086;2023-04-24T05:11:11;25.50;57.13
67364;HTU21D;54250;45.572;38.086;2023-04-24T05:13:39;26.46;54.86
67364;HTU21D;54250;45.572;38.086;2023-04-24T05:16:08;26.73;54.52
67364;HTU21D;54250;45.572;38.086;2023-04-24T05:18:35;27.28;53.84
67364;HTU21D;54250;45.572;38.086;2023-04-24T05:21:01;27.43;53.39
67364;HTU21D;54250;45.572;38.086;2023-04-24T05:23:28;26.65;54.55
67364;HTU21D;54250;45.572;38.086;2023-04-24T05:25:56;25.71;55.48
67364;HTU21D;54250;45.572;38.086;2023-04-24T05:28:22;25.01;56.47
67364;HTU21D;54250;45.572;38.086;2023-04-24T05:31:00;25.10;55.69
67364;HTU21D;54250;45.572;38.086;2023-04-24T05:33:27;25.16;55.41
67364;HTU21D;54250;45.572;38.086;2023-04-24T05:35:53;25.16;54.98
67364;HTU21D;54250;45.572;38.086;2023-04-24T05:38:20;25.08;54.82
67364;HTU21D;54250;45.572;38.086;2023-04-24T05:40:46;25.28;54.79
67364;HTU21D;54250;45.572;38.086;2023-04-24T05:43:13;25.36;54.29
67364;HTU21D;54250;45.572;38.086;2023-04-24T05:45:39;25.83;53.00
67364;HTU21D;54250;45.572;38.086;2023-04-24T05:48:05;25.81;52.97
67364;HTU21D;54250;45.572;38.086;2023-04-24T05:50:32;25.35;53.49
67364;HTU21D;54250;45.572;38.086;2023-04-24T05:52:58;24.54;54.83
67364;HTU21D;54250;45.572;38.086;2023-04-24T05:55:30;23.71;55.93
67364;HTU21D;54250;45.572;38.086;2023-04-24T05:57:56;22.67;57.61
67364;HTU21D;54250;45.572;38.086;2023-04-24T06:00:24;21.74;58.73
67364;HTU21D;54250;45.572;38.086;2023-04-24T06:03:00;21.25;59.55
67364;HTU21D;54250;45.572;38.086;2023-04-24T06:05:27;21.06;59.48
67364;HTU21D;54250;45.572;38.086;2023-04-24T06:07:53;20.98;59.48
67364;HTU21D;54250;45.572;38.086;2023-04-24T06:10:21;21.22;59.04
67364;HTU21D;54250;45.572;38.086;2023-04-24T06:12:49;21.34;58.41
67364;HTU21D;54250;45.572;38.086;2023-04-24T06:15:17;21.04;58.49
67364;HTU21D;54250;45.572;38.086;2023-04-24T06:17:57;20.62;59.46
67364;HTU21D;54250;45.572;38.086;2023-04-24T06:20:25;20.45;59.38
67364;HTU21D;54250;45.572;38.086;2023-04-24T06:22:51;20.14;59.89
67364;HTU21D;54250;45.572;38.086;2023-04-24T06:25:18;20.40;59.56
67364;HTU21D;54250;45.572;38.086;2023-04-24T06:27:44;20.28;59.66
67364;HTU21D;54250;45.572;38.086;2023-04-24T06:30:11;20.00;60.31
67364;HTU21D;54250;45.572;38.086;2023-04-24T06:32:42;19.68;61.01
67364;HTU21D;54250;45.572;38.086;2023-04-24T06:35:08;19.29;61.84
67364;HTU21D;54250;45.572;38.086;2023-04-24T06:37:35;18.96;62.46
67364;HTU21D;54250;45.572;38.086;2023-04-24T06:40:02;18.72;62.96
67364;HTU21D;54250;45.572;38.086;2023-04-24T06:42:28;18.61;63.27
67364;HTU21D;54250;45.572;38.086;2023-04-24T06:44:55;18.58;63.28
67364;HTU21D;54250;45.572;38.086;2023-04-24T06:47:21;18.47;63.50
67364;HTU21D;54250;45.572;38.086;2023-04-24T06:49:47;18.34;63.76
67364;HTU21D;54250;45.572;38.086;2023-04-24T06:52:13;18.27;63.90
67364;HTU21D;54250;45.572;38.086;2023-04-24T06:54:41;18.14;64.17
67364;HTU21D;54250;45.572;38.086;2023-04-24T06:57:08;18.04;64.47
67364;HTU21D;54250;45.572;38.086;2023-04-24T06:59:34;18.06;64.51
67364;HTU21D;54250;45.572;38.086;2023-04-24T07:02:00;18.11;64.58
67364;HTU21D;54250;45.572;38.086;2023-04-24T07:04:27;18.26;64.50
67364;HTU21D;54250;45.572;38.086;2023-04-24T07:06:53;18.57;64.10
67364;HTU21D;54250;45.572;38.086;2023-04-24T07:09:24;18.99;63.50
67364;HTU21D;54250;45.572;38.086;2023-04-24T07:11:51;19.27;63.23
67364;HTU21D;54250;45.572;38.086;2023-04-24T07:14:18;19.66;62.85
67364;HTU21D;54250;45.572;38.086;2023-04-24T07:16:44;20.16;61.99
67364;HTU21D;54250;45.572;38.086;2023-04-24T07:19:12;20.43;61.84
67364;HTU21D;54250;45.572;38.086;2023-04-24T07:21:38;20.58;61.76
67364;HTU21D;54250;45.572;38.086;2023-04-24T07:24:05;20.62;62.03
67364;HTU21D;54250;45.572;38.086;2023-04-24T07:26:34;20.57;62.24
67364;HTU21D;54250;45.572;38.086;2023-04-24T07:29:01;20.53;62.63
67364;HTU21D;54250;45.572;38.086;2023-04-24T07:31:27;20.37;63.04
67364;HTU21D;54250;45.572;38.086;2023-04-24T07:33:53;20.30;63.29
67364;HTU21D;54250;45.572;38.086;2023-04-24T07:36:19;20.14;63.56
67364;HTU21D;54250;45.572;38.086;2023-04-24T07:38:48;20.11;63.73
67364;HTU21D;54250;45.572;38.086;2023-04-24T07:41:14;20.31;63.17
67364;HTU21D;54250;45.572;38.086;2023-04-24T07:43:41;20.28;63.18
67364;HTU21D;54250;45.572;38.086;2023-04-24T07:46:08;20.43;62.80
67364;HTU21D;54250;45.572;38.086;2023-04-24T07:48:35;20.42;63.02
67364;HTU21D;54250;45.572;38.086;2023-04-24T07:51:02;20.61;62.69
67364;HTU21D;54250;45.572;38.086;2023-04-24T07:53:28;20.72;62.57
67364;HTU21D;54250;45.572;38.086;2023-04-24T07:55:55;20.71;62.70
67364;HTU21D;54250;45.572;38.086;2023-04-24T07:58:21;20.78;62.67
67364;HTU21D;54250;45.572;38.086;2023-04-24T08:00:47;20.69;62.76
67364;HTU21D;54250;45.572;38.086;2023-04-24T08:03:14;20.69;62.92
67364;HTU21D;54250;45.572;38.086;2023-04-24T08:05:41;20.75;62.91
67364;HTU21D;54250;45.572;38.086;2023-04-24T08:08:08;20.66;62.97
67364;HTU21D;54250;45.572;38.086;2023-04-24T08:10:34;20.31;63.46
67364;HTU21D;54250;45.572;38.086;2023-04-24T08:13:00;20.26;63.81
67364;HTU21D;54250;45.572;38.086;2023-04-24T08:15:27;20.34;63.37
67364;HTU21D;54250;45.572;38.086;2023-04-24T08:17:53;20.29;63.23
67364;HTU21D;54250;45.572;38.086;2023-04-24T08:20:19;20.39;63.15
67364;HTU21D;54250;45.572;38.086;2023-04-24T08:22:45;20.54;62.90
67364;HTU21D;54250;45.572;38.086;2023-04-24T08:25:13;20.63;62.79
67364;HTU21D;54250;45.572;38.086;2023-04-24T08:27:39;20.57;62.79
67364;HTU21D;54250;45.572;38.086;2023-04-24T08:30:06;20.69;62.79
67364;HTU21D;54250;45.572;38.086;2023-04-24T08:32:32;20.95;62.23
67364;HTU21D;54250;45.572;38.086;2023-04-24T08:34:59;20.81;62.06
67364;HTU21D;54250;45.572;38.086;2023-04-24T08:37:26;20.80;62.46
67364;HTU21D;54250;45.572;38.086;2023-04-24T08:39:53;20.83;62.17
67364;HTU21D;54250;45.572;38.086;2023-04-24T08:42:20;20.66;62.52
67364;HTU21D;54250;45.572;38.086;2023-04-24T08:44:49;20.71;62.55
67364;HTU21D;54250;45.572;38.086;2023-04-24T08:47:15;20.69;62.46
67364;HTU21D;54250;45.572;38.086;2023-04-24T08:49:42;20.66;62.46
67364;HTU21D;54250;45.572;38.086;2023-04-24T08:52:08;20.59;62.75
67364;HTU21D;54250;45.572;38.086;2023-04-24T08:54:36;20.50;62.76
67364;HTU21D;54250;45.572;38.086;2023-04-24T08:57:03;20.43;62.87
67364;HTU21D;54250;45.572;38.086;2023-04-24T08:59:30;20.34;62.98
67364;HTU21D;54250;45.572;38.086;2023-04-24T09:01:57;20.16;63.30
67364;HTU21D;54250;45.572;38.086;2023-04-24T09:04:24;20.06;63.56
67364;HTU21D;54250;45.572;38.086;2023-04-24T09:06:52;19.90;63.76
67364;HTU21D;54250;45.572;38.086;2023-04-24T09:09:21;19.77;64.14
67364;HTU21D;54250;45.572;38.086;2023-04-24T09:11:50;19.73;64.08
67364;HTU21D;54250;45.572;38.086;2023-04-24T09:14:17;19.47;64.45
67364;HTU21D;54250;45.572;38.086;2023-04-24T09:16:43;19.32;64.76
67364;HTU21D;54250;45.572;38.086;2023-04-24T09:19:09;19.24;64.85
67364;HTU21D;54250;45.572;38.086;2023-04-24T09:21:35;19.21;65.01
67364;HTU21D;54250;45.572;38.086;2023-04-24T09:24:07;19.13;65.09
67364;HTU21D;54250;45.572;38.086;2023-04-24T09:26:35;18.96;65.30
67364;HTU21D;54250;45.572;38.086;2023-04-24T09:29:03;18.83;65.55
67364;HTU21D;54250;45.572;38.086;2023-04-24T09:31:30;18.64;65.69
67364;HTU21D;54250;45.572;38.086;2023-04-24T09:36:32;18.36;65.89
67364;HTU21D;54250;45.572;38.086;2023-04-24T09:39:06;18.27;66.01
67364;HTU21D;54250;45.572;38.086;2023-04-24T09:41:34;18.18;66.16
67364;HTU21D;54250;45.572;38.086;2023-04-24T09:46:38;18.04;66.39
67364;HTU21D;54250;45.572;38.086;2023-04-24T09:49:14;18.06;66.36
67364;HTU21D;54250;45.572;38.086;2023-04-24T09:51:42;18.09;66.33
67364;HTU21D;54250;45.572;38.086;2023-04-24T09:54:16;18.18;66.27
67364;HTU21D;54250;45.572;38.086;2023-04-24T09:56:43;18.30;66.11
67364;HTU21D;54250;45.572;38.086;2023-04-24T09:59:11;18.39;66.01
67364;HTU21D;54250;45.572;38.086;2023-04-24T10:01:37;18.52;65.88
67364;HTU21D;54250;45.572;38.086;2023-04-24T10:04:21;18.66;65.78
67364;HTU21D;54250;45.572;38.086;2023-04-24T10:06:49;18.81;65.58
67364;HTU21D;54250;45.572;38.086;2023-04-24T10:09:19;18.88;65.63
67364;HTU21D;54250;45.572;38.086;2023-04-24T10:11:47;18.92;65.85
67364;HTU21D;54250;45.572;38.086;2023-04-24T10:14:21;18.94;65.95
67364;HTU21D;54250;45.572;38.086;2023-04-24T10:16:49;18.82;66.29
67364;HTU21D;54250;45.572;38.086;2023-04-24T10:19:16;18.74;66.60
67364;HTU21D;54250;45.572;38.086;2023-04-24T10:21:44;18.81;66.58
67364;HTU21D;54250;45.572;38.086;2023-04-24T10:24:17;18.86;66.59
67364;HTU21D;54250;45.572;38.086;2023-04-24T10:26:45;18.87;66.59
67364;HTU21D;54250;45.572;38.086;2023-04-24T10:29:16;18.84;66.69
67364;HTU21D;54250;45.572;38.086;2023-04-24T10:31:42;18.72;66.93
67364;HTU21D;54250;45.572;38.086;2023-04-24T10:34:11;18.67;67.12
67364;HTU21D;54250;45.572;38.086;2023-04-24T10:36:41;18.72;67.07
67364;HTU21D;54250;45.572;38.086;2023-04-24T10:39:11;18.81;67.03
67364;HTU21D;54250;45.572;38.086;2023-04-24T10:41:38;18.80;66.90
67364;HTU21D;54250;45.572;38.086;2023-04-24T10:44:08;18.76;67.10
67364;HTU21D;54250;45.572;38.086;2023-04-24T10:46:36;18.71;67.18
67364;HTU21D;54250;45.572;38.086;2023-04-24T10:49:06;18.58;67.32
67364;HTU21D;54250;45.572;38.086;2023-04-24T10:52:08;18.42;67.71
67364;HTU21D;54250;45.572;38.086;2023-04-24T10:54:36;18.25;67.93
67364;HTU21D;54250;45.572;38.086;2023-04-24T10:59:46;17.81;68.57
67364;HTU21D;54250;45.572;38.086;2023-04-24T11:02:14;17.64;69.01
67364;HTU21D;54250;45.572;38.086;2023-04-24T11:04:44;17.45;69.33
67364;HTU21D;54250;45.572;38.086;2023-04-24T11:07:11;17.28;69.66
67364;HTU21D;54250;45.572;38.086;2023-04-24T11:09:38;17.10;69.96
67364;HTU21D;54250;45.572;38.086;2023-04-24T11:12:11;16.92;70.46
67364;HTU21D;54250;45.572;38.086;2023-04-24T11:17:37;16.55;71.22
67364;HTU21D;54250;45.572;38.086;2023-04-24T11:20:09;16.06;72.29
67364;HTU21D;54250;45.572;38.086;2023-04-24T11:22:38;15.48;73.71
67364;HTU21D;54250;45.572;38.086;2023-04-24T11:25:09;15.13;74.47
67364;HTU21D;54250;45.572;38.086;2023-04-24T11:27:42;14.89;75.02
67364;HTU21D;54250;45.572;38.086;2023-04-24T11:30:10;14.80;74.99
67364;HTU21D;54250;45.572;38.086;2023-04-24T11:32:41;14.72;74.93
67364;HTU21D;54250;45.572;38.086;2023-04-24T11:37:41;14.45;75.76
67364;HTU21D;54250;45.572;38.086;2023-04-24T11:40:10;14.36;75.95
67364;HTU21D;54250;45.572;38.086;2023-04-24T11:42:38;14.25;76.12
67364;HTU21D;54250;45.572;38.086;2023-04-24T11:45:21;14.21;76.16
67364;HTU21D;54250;45.572;38.086;2023-04-24T11:47:47;14.23;76.08
67364;HTU21D;54250;45.572;38.086;2023-04-24T11:50:15;14.24;76.05
67364;HTU21D;54250;45.572;38.086;2023-04-24T11:52:43;14.28;75.90
67364;HTU21D;54250;45.572;38.086;2023-04-24T11:57:49;14.21;76.46
67364;HTU21D;54250;45.572;38.086;2023-04-24T12:00:19;14.19;76.58
67364;HTU21D;54250;45.572;38.086;2023-04-24T12:02:46;14.14;76.61
67364;HTU21D;54250;45.572;38.086;2023-04-24T12:05:24;14.13;76.76
67364;HTU21D;54250;45.572;38.086;2023-04-24T12:07:52;14.11;77.04
67364;HTU21D;54250;45.572;38.086;2023-04-24T12:10:25;14.08;77.26
67364;HTU21D;54250;45.572;38.086;2023-04-24T12:12:51;13.99;77.12
67364;HTU21D;54250;45.572;38.086;2023-04-24T12:15:19;13.99;77.24
67364;HTU21D;54250;45.572;38.086;2023-04-24T12:17:46;13.95;77.48
67364;HTU21D;54250;45.572;38.086;2023-04-24T12:20:13;13.90;77.68
67364;HTU21D;54250;45.572;38.086;2023-04-24T12:22:51;13.88;77.89
67364;HTU21D;54250;45.572;38.086;2023-04-24T12:25:20;13.86;77.83
67364;HTU21D;54250;45.572;38.086;2023-04-24T12:27:52;13.81;78.02
67364;HTU21D;54250;45.572;38.086;2023-04-24T12:30:19;13.77;78.06
67364;HTU21D;54250;45.572;38.086;2023-04-24T12:32:49;13.79;78.33
67364;HTU21D;54250;45.572;38.086;2023-04-24T12:35:20;13.81;78.47
67364;HTU21D;54250;45.572;38.086;2023-04-24T12:37:47;13.81;78.49
67364;HTU21D;54250;45.572;38.086;2023-04-24T12:40:13;13.86;78.64
67364;HTU21D;54250;45.572;38.086;2023-04-24T12:42:48;13.90;78.75
67364;HTU21D;54250;45.572;38.086;2023-04-24T12:45:15;13.96;78.76
67364;HTU21D;54250;45.572;38.086;2023-04-24T12:47:43;14.05;78.99
67364;HTU21D;54250;45.572;38.086;2023-04-24T12:50:10;14.11;79.10
67364;HTU21D;54250;45.572;38.086;2023-04-24T12:52:37;14.18;79.14
67364;HTU21D;54250;45.572;38.086;2023-04-24T12:55:03;14.22;79.35
67364;HTU21D;54250;45.572;38.086;2023-04-24T12:57:30;14.20;79.46
67364;HTU21D;54250;45.572;38.086;2023-04-24T12:59:58;14.22;79.71
67364;HTU21D;54250;45.572;38.086;2023-04-24T13:02:25;14.27;80.03
67364;HTU21D;54250;45.572;38.086;2023-04-24T13:04:53;14.26;80.20
67364;HTU21D;54250;45.572;38.086;2023-04-24T13:07:19;14.25;80.34
67364;HTU21D;54250;45.572;38.086;2023-04-24T13:09:49;14.23;80.58
67364;HTU21D;54250;45.572;38.086;2023-04-24T13:12:15;14.22;80.57
67364;HTU21D;54250;45.572;38.086;2023-04-24T13:14:42;14.17;80.93
67364;HTU21D;54250;45.572;38.086;2023-04-24T13:17:08;14.14;81.10
67364;HTU21D;54250;45.572;38.086;2023-04-24T13:19:39;14.18;81.15
67364;HTU21D;54250;45.572;38.086;2023-04-24T13:22:06;14.19;81.20
67364;HTU21D;54250;45.572;38.086;2023-04-24T13:24:33;14.19;81.29
67364;HTU21D;54250;45.572;38.086;2023-04-24T13:26:59;14.17;81.44
67364;HTU21D;54250;45.572;38.086;2023-04-24T13:29:26;14.13;81.51
67364;HTU21D;54250;45.572;38.086;2023-04-24T13:31:54;14.09;81.69
67364;HTU21D;54250;45.572;38.086;2023-04-24T13:34:21;14.05;81.81
67364;HTU21D;54250;45.572;38.086;2023-04-24T13:36:47;14.06;81.85
67364;HTU21D;54250;45.572;38.086;2023-04-24T13:39:14;14.06;81.86
67364;HTU21D;54250;45.572;38.086;2023-04-24T13:41:42;14.07;81.95
67364;HTU21D;54250;45.572;38.086;2023-04-24T13:44:08;14.07;81.97
67364;HTU21D;54250;45.572;38.086;2023-04-24T13:46:35;14.09;82.03
67364;HTU21D;54250;45.572;38.086;2023-04-24T13:49:02;14.10;82.09
67364;HTU21D;54250;45.572;38.086;2023-04-24T13:51:29;14.11;82.10
67364;HTU21D;54250;45.572;38.086;2023-04-24T13:53:55;14.11;82.18
67364;HTU21D;54250;45.572;38.086;2023-04-24T13:56:22;14.10;82.27
67364;HTU21D;54250;45.572;38.086;2023-04-24T13:58:48;14.10;82.38
67364;HTU21D;54250;45.572;38.086;2023-04-24T14:01:15;14.11;82.46
67364;HTU21D;54250;45.572;38.086;2023-04-24T14:03:41;14.10;82.51
67364;HTU21D;54250;45.572;38.086;2023-04-24T14:06:09;14.07;82.59
67364;HTU21D;54250;45.572;38.086;2023-04-24T14:08:35;14.07;82.63
67364;HTU21D;54250;45.572;38.086;2023-04-24T14:11:01;14.09;82.69
67364;HTU21D;54250;45.572;38.086;2023-04-24T14:13:28;14.11;82.75
67364;HTU21D;54250;45.572;38.086;2023-04-24T14:15:54;14.12;82.77
67364;HTU21D;54250;45.572;38.086;2023-04-24T14:18:20;14.13;82.78
67364;HTU21D;54250;45.572;38.086;2023-04-24T14:20:46;14.14;82.85
67364;HTU21D;54250;45.572;38.086;2023-04-24T14:23:12;14.14;82.96
67364;HTU21D;54250;45.572;38.086;2023-04-24T14:25:38;14.14;83.00
67364;HTU21D;54250;45.572;38.086;2023-04-24T14:28:06;14.17;83.04
67364;HTU21D;54250;45.572;38.086;2023-04-24T14:30:32;14.14;83.08
67364;HTU21D;54250;45.572;38.086;2023-04-24T14:32:58;14.14;83.20
67364;HTU21D;54250;45.572;38.086;2023-04-24T14:35:24;14.13;83.30
67364;HTU21D;54250;45.572;38.086;2023-04-24T14:37:51;14.13;83.36
67364;HTU21D;54250;45.572;38.086;2023-04-24T14:40:17;14.11;83.43
67364;HTU21D;54250;45.572;38.086;2023-04-24T14:42:43;14.09;83.55
67364;HTU21D;54250;45.572;38.086;2023-04-24T14:45:09;14.07;83.71
67364;HTU21D;54250;45.572;38.086;2023-04-24T14:47:36;14.06;83.80
67364;HTU21D;54250;45.572;38.086;2023-04-24T14:50:03;14.04;83.88
67364;HTU21D;54250;45.572;38.086;2023-04-24T14:52:29;14.00;83.96
67364;HTU21D;54250;45.572;38.086;2023-04-24T14:54:55;13.98;84.06
67364;HTU21D;54250;45.572;38.086;2023-04-24T14:57:22;14.00;84.10
67364;HTU21D;54250;45.572;38.086;2023-04-24T14:59:48;13.99;84.16
67364;HTU21D;54250;45.572;38.086;2023-04-24T15:02:14;14.00;84.21
67364;HTU21D;54250;45.572;38.086;2023-04-24T15:04:40;13.98;84.27
67364;HTU21D;54250;45.572;38.086;2023-04-24T15:07:07;13.96;84.34
67364;HTU21D;54250;45.572;38.086;2023-04-24T15:09:33;13.97;84.35
67364;HTU21D;54250;45.572;38.086;2023-04-24T15:11:59;13.96;84.44
67364;HTU21D;54250;45.572;38.086;2023-04-24T15:14:27;13.97;84.52
67364;HTU21D;54250;45.572;38.086;2023-04-24T15:16:53;13.95;84.57
67364;HTU21D;54250;45.572;38.086;2023-04-24T15:19:19;13.94;84.61
67364;HTU21D;54250;45.572;38.086;2023-04-24T15:21:45;13.94;84.77
67364;HTU21D;54250;45.572;38.086;2023-04-24T15:24:11;13.91;84.77